Seminole, Pennsylvania
Current Conditions -  °F | °C
As of 12:35 AM on Sunday 26 Oct 2014 (Local Time) from KIDI Reporting Station
Clear Clear  
Wind Chill: 57°   Ceiling: Unl
Heat Index: 57°   Visibility: 10mi
Dew Point: 34°   Wind: 10mph
Humidity: 41%   Direction: 310°NW
Pressure: 29.78"   Gusts: 31mph
Location:  40.95°N, 79.34°W
Report Text: KIDI 260435Z AUTO 31009G27KT 10SM CLR 14/01 A2978 RMK A01
Loading
Personal Weather Stations






























Interactive Weather Map
Tropical Storm Tracking
New forecast layout! Learn more

10-Day Weather Forecast

Advertisements
Track Severe Weather on mobile